Terminal Aerodrome Forecast
Issued by NWS

Home | Current Version | Previous Version | Graphics & Text | Print | Product List | Glossary On
Versions: 1 2 3 4 5 6 7 8 9 10 11 12 13 14 15 16 17 18 19 20 21 22 23 24 25 26 27 28 29 30
577
FTUS43 KLOT 050541
TAFMDW
TAF
KMDW 050541Z 0506/0606 25008KT 3SM BR OVC005
     FM051100 23005KT 1SM BR OVC008
      TEMPO 0512/0515 1/2SM FZFG VV005
     FM051600 20006KT 2SM BR OVC008
     FM051900 19009KT 6SM BR OVC012=

USA.gov is the U.S. government's official web portal to all federal, state and local government web resources and services.